»·PEaware :: N75232 KSBD-KBUR

N75232 :: KSBD-KBUR

FLIGHT INFORMATION

Flight Status: Arrived
Operator: Privately registered:
United States
More flights under this callsign
Pilot: Daniel B. (28719)
Aircraft: CESSNA 172 SKYHAWK
(C172)
More flights by this aircraft type
Origin: KSBD San Bernardino Intl
United States
Destination: KBUR Bob Hope-Burbank
United States
More flights between these airports :: More routes between these airports
Route: PDZ V186 VNY
File this flight plan on PilotEdge
Remarks:
Altitude:
(Current/Filed)
6,000ft
Speed:
(Current/Filed)
115kts
Departed: 06-Jun-20 06:37 PM
Arrived: 06-Jun-20 07:30 PM
Distance/Time
Traveled:
56nm/0:53
Distance/Time
To Go:
Arrived

Flight Plot

Page will automatically refresh every two minutes.


Map Options




Map Legend


Flown Route
Filed Route
Departure Airport
Arrival Airport
Navaid (VOR, NDB)
Fix

Horizontal Profiles

Position Reports

Time Latitude Longitude Heading Altitude Ground
Speed
06-Jun-20 17:59 34.100574 -117.226563 13 1140ft 0kts
06-Jun-20 18:00 34.100574 -117.226563 13 1140ft 0kts
06-Jun-20 18:01 34.100574 -117.226563 13 1140ft 0kts
06-Jun-20 18:02 34.100574 -117.226563 13 1140ft 0kts
06-Jun-20 18:03 34.100574 -117.226563 13 1140ft 0kts
06-Jun-20 18:04 34.100574 -117.226563 13 1140ft 0kts
06-Jun-20 18:05 34.100574 -117.226563 13 1140ft 0kts
06-Jun-20 18:06 34.100574 -117.226563 13 1140ft 0kts
06-Jun-20 18:07 34.100574 -117.226563 13 1140ft 0kts
06-Jun-20 18:08 34.100574 -117.226563 13 1140ft 0kts
06-Jun-20 18:09 34.100574 -117.226563 13 1140ft 0kts
06-Jun-20 18:10 34.100574 -117.226563 13 1140ft 0kts
06-Jun-20 18:11 34.100574 -117.226563 13 1140ft 0kts
06-Jun-20 18:12 34.100574 -117.226563 13 1140ft 0kts
06-Jun-20 18:13 34.100574 -117.226563 13 1140ft 0kts
06-Jun-20 18:14 34.100574 -117.226563 13 1140ft 0kts
06-Jun-20 18:15 34.100574 -117.226563 13 1140ft 0kts
06-Jun-20 18:16 34.100574 -117.226563 13 1140ft 0kts
06-Jun-20 18:17 34.100574 -117.226563 13 1140ft 0kts
06-Jun-20 18:18 34.100574 -117.226563 13 1140ft 0kts
06-Jun-20 18:19 34.100574 -117.226563 13 1140ft 0kts
06-Jun-20 18:20 34.100574 -117.226563 13 1140ft 0kts
06-Jun-20 18:21 34.100574 -117.226563 13 1140ft 0kts
06-Jun-20 18:22 34.100574 -117.226563 13 1140ft 0kts
06-Jun-20 18:23 34.100574 -117.226563 13 1140ft 0kts
06-Jun-20 18:24 34.100574 -117.226563 13 1140ft 0kts
06-Jun-20 18:26 34.100574 -117.226563 13 1140ft 0kts
06-Jun-20 18:27 34.100574 -117.226563 13 1140ft 0kts
06-Jun-20 18:28 34.100574 -117.226563 13 1140ft 0kts
06-Jun-20 18:29 34.100579 -117.226563 6 1140ft 0kts
06-Jun-20 18:30 34.100302 -117.226231 217 1141ft 4kts
06-Jun-20 18:31 34.100002 -117.225214 70 1145ft 14kts
06-Jun-20 18:32 34.100782 -117.219747 165 1159ft 0kts
06-Jun-20 18:33 34.100782 -117.219747 165 1159ft 0kts
06-Jun-20 18:34 34.100782 -117.219747 165 1159ft 0kts
06-Jun-20 18:35 34.100782 -117.219747 165 1159ft 0kts
06-Jun-20 18:36 34.099601 -117.220298 249 1157ft 0kts
06-Jun-20 18:37 34.096450 -117.229220 240 1311ft 76kts
06-Jun-20 18:38 34.087809 -117.250526 251 1975ft 86kts
06-Jun-20 18:39 34.077011 -117.271635 236 2713ft 82kts
06-Jun-20 18:40 34.065600 -117.290770 235 3358ft 83kts
06-Jun-20 18:41 34.053134 -117.308873 238 4025ft 79kts
06-Jun-20 18:42 34.041846 -117.328394 238 4642ft 79kts
06-Jun-20 18:43 34.030502 -117.347580 238 5225ft 79kts
06-Jun-20 18:43 34.020888 -117.363155 242 5685ft 77kts
06-Jun-20 18:45 34.008481 -117.384091 240 6001ft 98kts
06-Jun-20 18:46 33.995255 -117.407187 241 6024ft 105kts
06-Jun-20 18:46 33.983763 -117.426512 240 6022ft 106kts
06-Jun-20 18:47 33.969396 -117.451276 241 6023ft 106kts
06-Jun-20 18:48 33.954526 -117.477143 241 6035ft 109kts
06-Jun-20 18:49 33.938480 -117.503279 240 6009ft 114kts
06-Jun-20 18:50 33.926200 -117.532142 292 5944ft 107kts
06-Jun-20 18:51 33.934507 -117.561558 291 6024ft 106kts
06-Jun-20 18:52 33.943879 -117.591607 297 6041ft 107kts
06-Jun-20 18:53 33.954194 -117.620103 293 6051ft 107kts
06-Jun-20 18:54 33.962959 -117.647695 293 6028ft 107kts
06-Jun-20 18:55 33.971896 -117.674353 293 6046ft 104kts
06-Jun-20 18:56 33.982090 -117.701151 290 6026ft 104kts
06-Jun-20 18:57 33.990786 -117.728435 287 6014ft 104kts
06-Jun-20 18:58 34.000567 -117.755458 290 6000ft 105kts
06-Jun-20 18:59 34.010697 -117.782648 285 5985ft 104kts
06-Jun-20 19:00 34.018584 -117.812409 284 6014ft 103kts
06-Jun-20 19:01 34.026560 -117.841362 283 6036ft 103kts
06-Jun-20 19:02 34.034603 -117.868300 288 6043ft 104kts
06-Jun-20 19:03 34.042607 -117.893445 279 6052ft 103kts
06-Jun-20 19:04 34.049420 -117.918664 287 6059ft 104kts
06-Jun-20 19:05 34.057876 -117.943511 283 6043ft 105kts
06-Jun-20 19:06 34.064534 -117.967995 287 6030ft 105kts
06-Jun-20 19:07 34.072204 -117.991733 286 6030ft 104kts
06-Jun-20 19:08 34.079539 -118.014549 287 6017ft 105kts
06-Jun-20 19:09 34.086931 -118.037142 288 6007ft 105kts
06-Jun-20 19:10 34.094083 -118.059249 286 5998ft 105kts
06-Jun-20 19:11 34.101539 -118.080935 290 5726ft 100kts
06-Jun-20 19:12 34.107399 -118.100031 284 5276ft 92kts
06-Jun-20 19:13 34.112155 -118.118965 286 4860ft 92kts
06-Jun-20 19:14 34.119325 -118.138382 291 4419ft 95kts
06-Jun-20 19:15 34.126509 -118.158114 289 4023ft 93kts
06-Jun-20 19:16 34.134395 -118.177835 295 3608ft 98kts
06-Jun-20 19:17 34.143028 -118.198095 295 3270ft 98kts
06-Jun-20 19:18 34.150361 -118.219052 288 2934ft 101kts
06-Jun-20 19:19 34.156382 -118.239687 292 2598ft 106kts
06-Jun-20 19:20 34.163386 -118.262127 293 2146ft 117kts
06-Jun-20 19:21 34.171294 -118.286749 289 1854ft 124kts
06-Jun-20 19:22 34.176560 -118.310421 285 1839ft 115kts
06-Jun-20 19:23 34.179268 -118.333348 271 1844ft 97kts
06-Jun-20 19:24 34.179414 -118.351663 273 1856ft 85kts
06-Jun-20 19:25 34.179265 -118.370266 273 1826ft 82kts
06-Jun-20 19:26 34.183393 -118.383430 8 1482ft 65kts
06-Jun-20 19:27 34.196528 -118.379420 49 1009ft 68kts
06-Jun-20 19:28 34.197860 -118.365194 92 722ft 46kts
06-Jun-20 19:29 34.198314 -118.360282 8 716ft 8kts
06-Jun-20 19:30 34.198625 -118.360249 3 717ft 0kts
06-Jun-20 19:31 34.199274 -118.360228 12 720ft 9kts
06-Jun-20 19:32 34.199506 -118.359303 0 719ft 0kts
06-Jun-20 19:33 34.199506 -118.359303 348 719ft 0kts
06-Jun-20 19:34 34.199506 -118.359303 348 719ft 0kts
06-Jun-20 19:35 34.199506 -118.359303 348 719ft 0kts
06-Jun-20 19:36 34.199506 -118.359303 348 719ft 0kts

Navigation Log

Ident Type
Flight plan parsing failed, navigation log unavailable